Skip Navigation LinksHome page > Weather > Current weather Skip Navigation Links

Current Weather

Monterey Peninsula, Monterey, Calif.

For information only: do not use for flight planning or navigation.
Latest weather
Observation time Friday, May 14, 2021 4:54 AM PDT
Local time Friday, May 14, 2021 6:38 AM PDT
Flight conditions Low Instrument Meteorological Conditions
Winds
Wind direction West-Southwest (240°)
Wind speed 6 mph
Visibility 8 mi.
Sky condition
Ceiling 300 ft. overcast
Cloud layer overcast 300 ft.
Temperature 52°F
Dewpoint 49°F
Altimeter 30.01 in.Hg
Pressure change last 3 hours0.01 in.Hg
Pressure falling more slowly
Derived measurements
Relative humidity 89%
Density altitude -146 ft.
Sea-level pressure 30.05 in.Hg
Climate data
Temperature minimum, last 6 hours 52°F
Temperature maximum, last 6 hours 53°F
Remarks
Fully automated report.
Automated weather observing station with precipitation discriminator.
METAR KMRY 141154Z AUTO 24005KT 8SM OVC003 11/09 A3001 RMK AO2 SLP175 T01110094 10117 20111 56005

Settings

Location code

InnerDrive.Weather 4.0.6770.0 Release CLR 4.0.30319.42000
Copyright ©2018 Inner Drive Technology. All rights reserved. Portions Copyright ©1986-2018 David Braverman.

Find weather

Site navigation


Skip Navigation Links

Place info

Page info

PayPal - The safer, easier way to pay online!

Return home.

Copyright ©2021 Inner Drive Technology. Purveyors of fine, hand-crafted computer software. Page printed 2021-05-14T13:38:09 UTC.